Time;durP1;ratioP1;P1;durP2;ratioP2;P2;SDS_P1;SDS_P2;PMS_P1;PMS_P2;Temp;Humidity;BMP_temperature;BMP_pressure;BME280_temperature;BME280_humidity;BME280_pressure;Samples;Min_cycle;Max_cycle;Signal;HPM_P1;HPM_P2
2022/09/27 00:00:11;;;;;;;50.40;34.70;;;9.80;99.90;;;;;;2603296;47;20026;31
2022/09/27 00:02:48;;;;;;;;;;;9.80;99.90;;;;;;2603311;54;20038;31
2022/09/27 00:05:22;;;;;;;59.37;37.47;;;9.80;99.90;;;;;;2602830;54;19986;31
2022/09/27 00:07:57;;;;;;;58.78;35.97;;;9.80;99.90;;;;;;2603031;54;20031;31
2022/09/27 00:10:32;;;;;;;43.90;31.42;;;9.80;99.90;;;;;;2602696;54;20879;31
2022/09/27 00:13:10;;;;;;;49.03;33.77;;;9.80;99.90;;;;;;2603521;54;20023;31
2022/09/27 00:15:45;;;;;;;52.67;33.63;;;9.80;99.90;;;;;;2603848;54;19938;31
2022/09/27 00:18:20;;;;;;;53.95;35.00;;;9.90;99.90;;;;;;2603437;54;20105;31
2022/09/27 00:20:55;;;;;;;56.37;35.73;;;9.90;99.90;;;;;;2603711;54;20027;31
2022/09/27 00:23:29;;;;;;;48.97;31.47;;;9.90;99.90;;;;;;2603670;54;20862;31
2022/09/27 00:26:04;;;;;;;52.28;34.80;;;9.90;99.90;;;;;;2622133;46;20242;31
2022/09/27 00:28:42;;;;;;;43.75;29.35;;;9.90;99.90;;;;;;2603411;54;20058;31
2022/09/27 00:31:23;;;;;;;40.88;29.33;;;9.90;99.90;;;;;;2609023;39;22462;31
2022/09/27 00:33:58;;;;;;;47.05;33.83;;;9.90;99.90;;;;;;2603685;54;20033;31
2022/09/27 00:36:33;;;;;;;47.83;34.40;;;10.00;99.90;;;;;;2603573;54;20961;31
2022/09/27 00:39:07;;;;;;;51.53;34.10;;;9.90;99.90;;;;;;2603705;54;20026;31
2022/09/27 00:41:43;;;;;;;46.95;32.60;;;10.00;99.90;;;;;;2603511;54;20038;31
2022/09/27 00:44:48;;;;;;;49.65;33.00;;;10.00;99.90;;;;;;2603613;54;20001;31
2022/09/27 00:47:27;;;;;;;46.90;32.00;;;10.00;99.90;;;;;;2608924;46;20023;31
2022/09/27 00:50:05;;;;;;;38.65;28.05;;;10.00;99.90;;;;;;2603560;54;20900;31
2022/09/27 00:52:43;;;;;;;31.23;23.48;;;10.00;99.90;;;;;;2603451;54;20928;31
2022/09/27 00:55:18;;;;;;;35.97;25.08;;;10.00;99.90;;;;;;2622398;46;20030;31
2022/09/27 00:57:53;;;;;;;28.47;22.20;;;10.20;99.90;;;;;;2603446;54;20888;31
2022/09/27 01:00:30;;;;;;;45.83;31.40;;;10.00;99.90;;;;;;2603495;54;20030;31
2022/09/27 01:03:08;;;;;;;51.10;35.25;;;10.20;99.90;;;;;;2603618;54;20860;31
2022/09/27 01:05:42;;;;;;;47.28;34.03;;;10.00;99.90;;;;;;2603503;54;20821;31
2022/09/27 01:08:17;;;;;;;54.75;34.60;;;9.90;99.90;;;;;;2603333;54;20023;31
2022/09/27 01:10:55;;;;;;;;;;;9.90;99.90;;;;;;2603508;54;20042;31
2022/09/27 01:13:35;;;;;;;56.50;35.53;;;9.90;99.90;;;;;;2621977;46;19935;31
2022/09/27 01:16:15;;;;;;;47.47;33.45;;;9.90;99.90;;;;;;2603676;54;20043;31
2022/09/27 01:18:59;;;;;;;45.50;30.20;;;9.80;99.90;;;;;;2603404;54;20038;31
2022/09/27 01:21:40;;;;;;;38.20;27.73;;;9.80;99.90;;;;;;2622091;46;20977;31
2022/09/27 01:24:36;;;;;;;42.47;29.30;;;9.80;99.90;;;;;;2603417;54;21037;31
2022/09/27 01:27:19;;;;;;;47.35;31.50;;;9.90;99.90;;;;;;2603457;54;20116;31
2022/09/27 01:30:06;;;;;;;36.85;27.08;;;9.80;99.90;;;;;;2603458;54;20926;31
2022/09/27 01:32:43;;;;;;;;;;;9.90;99.90;;;;;;2622375;46;20928;31
2022/09/27 01:35:18;;;;;;;;;;;9.80;99.90;;;;;;2603685;54;19938;31
2022/09/27 01:37:56;;;;;;;36.20;25.48;;;9.90;99.90;;;;;;2603396;54;20781;31
2022/09/27 01:40:32;;;;;;;43.75;27.40;;;9.90;99.90;;;;;;2603387;54;20944;31
2022/09/27 01:43:29;;;;;;;45.40;31.00;;;9.80;99.90;;;;;;2603579;54;20147;31
2022/09/27 01:46:06;;;;;;;42.15;28.70;;;9.80;99.90;;;;;;2603523;54;20116;31
2022/09/27 01:49:05;;;;;;;46.22;30.30;;;10.00;99.90;;;;;;2603456;54;20074;31
2022/09/27 01:51:39;;;;;;;36.88;27.70;;;10.00;99.90;;;;;;2609431;39;21053;31
2022/09/27 01:54:17;;;;;;;45.10;30.50;;;9.70;99.90;;;;;;2603243;54;20053;31
2022/09/27 01:57:09;;;;;;;40.42;28.10;;;9.70;99.90;;;;;;2603173;54;20080;31
2022/09/27 01:59:47;;;;;;;36.17;25.25;;;9.70;99.90;;;;;;2603139;54;20027;31
2022/09/27 02:02:41;;;;;;;43.65;27.27;;;9.70;99.90;;;;;;2603075;54;22415;31
2022/09/27 02:05:39;;;;;;;39.35;28.10;;;10.00;99.90;;;;;;2603247;54;20031;31
2022/09/27 02:08:37;;;;;;;44.83;29.73;;;9.60;99.90;;;;;;2603157;54;20033;31
2022/09/27 02:11:18;;;;;;;39.50;27.33;;;9.50;99.90;;;;;;2603201;54;20847;31
2022/09/27 02:14:04;;;;;;;45.25;28.00;;;9.50;99.90;;;;;;2603421;54;19941;31
2022/09/27 02:16:50;;;;;;;44.65;28.00;;;9.90;99.90;;;;;;2603240;54;20027;31
2022/09/27 02:19:36;;;;;;;41.20;28.83;;;9.50;99.90;;;;;;2603221;54;20925;31
2022/09/27 02:22:18;;;;;;;42.30;30.27;;;9.40;99.90;;;;;;2603219;54;20835;31
2022/09/27 02:24:55;;;;;;;35.88;25.55;;;9.60;99.90;;;;;;2603119;54;20023;31
2022/09/27 02:27:33;;;;;;;44.60;28.70;;;9.40;99.90;;;;;;2603258;54;20053;31
2022/09/27 02:30:14;;;;;;;44.00;30.08;;;9.40;99.90;;;;;;2603216;54;20177;31
2022/09/27 02:32:52;;;;;;;42.20;28.33;;;9.40;99.90;;;;;;2602375;54;20045;31
2022/09/27 02:35:29;;;;;;;35.28;25.55;;;9.40;99.90;;;;;;2603162;54;20034;31
2022/09/27 02:38:07;;;;;;;46.67;30.05;;;9.40;99.90;;;;;;2603005;54;19934;31
2022/09/27 02:40:46;;;;;;;37.80;26.20;;;9.40;99.90;;;;;;2603020;54;20022;31
2022/09/27 02:43:21;;;;;;;45.00;29.00;;;9.40;99.90;;;;;;2603380;54;20066;31
2022/09/27 02:46:03;;;;;;;44.53;28.15;;;9.30;99.90;;;;;;2603202;54;20049;31
2022/09/27 02:48:45;;;;;;;46.30;30.50;;;9.40;99.90;;;;;;2603103;54;20029;31
2022/09/27 02:51:31;;;;;;;42.53;29.45;;;9.40;99.90;;;;;;2609278;39;21138;31
2022/09/27 02:54:14;;;;;;;47.30;30.10;;;9.40;99.90;;;;;;2621894;46;20885;31
2022/09/27 02:57:14;;;;;;;41.75;28.58;;;9.40;99.90;;;;;;2603311;54;20057;31
2022/09/27 03:00:09;;;;;;;47.30;28.17;;;9.40;99.90;;;;;;2602989;54;20057;31
2022/09/27 03:03:09;;;;;;;43.78;29.08;;;9.40;99.90;;;;;;2603041;54;20960;31
2022/09/27 03:05:53;;;;;;;44.08;27.90;;;9.40;99.90;;;;;;2621865;46;20795;31
2022/09/27 03:08:30;;;;;;;40.95;28.08;;;9.40;99.90;;;;;;2603022;54;20140;31
2022/09/27 03:11:08;;;;;;;45.60;29.40;;;9.30;99.90;;;;;;2603086;54;21585;31
2022/09/27 03:13:43;;;;;;;42.78;29.52;;;9.40;99.90;;;;;;2603185;54;20030;31
2022/09/27 03:16:38;;;;;;;42.33;29.50;;;9.40;99.90;;;;;;2602967;54;20022;31
2022/09/27 03:19:42;;;;;;;41.38;28.25;;;9.40;99.90;;;;;;2603059;54;20021;31
2022/09/27 03:22:41;;;;;;;39.70;28.35;;;9.40;99.90;;;;;;2602723;54;20921;31
2022/09/27 03:25:17;;;;;;;39.45;28.40;;;9.40;99.90;;;;;;2602919;54;21533;31
2022/09/27 03:27:55;;;;;;;41.28;29.15;;;9.40;99.90;;;;;;2621636;46;20033;31
2022/09/27 03:30:29;;;;;;;41.65;29.75;;;9.30;99.90;;;;;;2602728;54;20030;31
2022/09/27 03:33:05;;;;;;;47.28;30.48;;;9.30;99.90;;;;;;2602681;54;20049;31
2022/09/27 03:36:05;;;;;;;42.08;30.50;;;9.40;99.90;;;;;;2602809;54;20100;31
2022/09/27 03:38:40;;;;;;;42.00;29.10;;;9.30;99.90;;;;;;2601914;54;20030;31
2022/09/27 03:41:18;;;;;;;39.30;27.80;;;9.30;99.90;;;;;;2602793;54;20078;31
2022/09/27 03:43:58;;;;;;;35.80;26.10;;;9.40;99.90;;;;;;2602908;54;20023;31
2022/09/27 03:46:35;;;;;;;40.75;26.90;;;9.30;99.90;;;;;;2603089;54;20113;31
2022/09/27 03:49:10;;;;;;;34.60;24.45;;;9.30;99.90;;;;;;2603598;54;20765;31
2022/09/27 03:51:45;;;;;;;39.10;27.80;;;9.30;99.90;;;;;;2603755;54;20811;31
2022/09/27 03:54:19;;;;;;;37.75;25.85;;;9.30;99.90;;;;;;2603620;54;20038;31
2022/09/27 03:56:55;;;;;;;35.80;25.92;;;9.30;99.90;;;;;;2603548;54;20029;31
2022/09/27 03:59:33;;;;;;;34.60;24.85;;;9.30;99.90;;;;;;2603632;54;20900;31
2022/09/27 04:02:27;;;;;;;37.58;26.05;;;9.30;99.90;;;;;;2603702;54;20023;31
2022/09/27 04:05:32;;;;;;;36.35;24.73;;;9.30;99.90;;;;;;2602810;54;20112;31
2022/09/27 04:08:07;;;;;;;32.70;24.70;;;9.30;99.90;;;;;;2619407;46;20909;31
2022/09/27 04:10:41;;;;;;;34.22;25.60;;;9.30;99.90;;;;;;2601229;54;20864;31
2022/09/27 04:13:16;;;;;;;39.28;27.42;;;9.30;99.90;;;;;;2600957;54;20938;31
2022/09/27 04:16:01;;;;;;;33.22;22.60;;;9.40;99.90;;;;;;2619266;46;20920;31
2022/09/27 04:19:00;;;;;;;33.13;22.75;;;9.40;99.90;;;;;;2601279;39;21329;31
2022/09/27 04:21:59;;;;;;;27.10;20.42;;;9.40;99.90;;;;;;2621905;46;20085;31
2022/09/27 04:24:35;;;;;;;27.15;21.10;;;9.40;99.90;;;;;;2603610;54;20785;31
2022/09/27 04:27:31;;;;;;;32.47;24.17;;;9.40;99.90;;;;;;2603254;54;20089;31
2022/09/27 04:30:06;;;;;;;28.35;22.77;;;9.50;99.90;;;;;;2622281;46;20900;31
2022/09/27 04:33:03;;;;;;;26.50;21.20;;;9.50;99.90;;;;;;2603588;54;20141;31
2022/09/27 04:38:54;;;;;;;36.08;25.13;;;9.50;99.90;;;;;;2622060;46;20061;31
2022/09/27 04:41:30;;;;;;;34.30;23.83;;;9.50;99.90;;;;;;2603436;54;20136;31
2022/09/27 04:44:06;;;;;;;31.70;23.20;;;9.50;99.90;;;;;;2603555;54;20889;31
2022/09/27 04:46:42;;;;;;;34.25;22.92;;;9.50;99.90;;;;;;2604167;46;20097;31
2022/09/27 04:49:21;;;;;;;38.47;25.48;;;9.50;99.90;;;;;;2603783;54;19954;31
2022/09/27 04:51:56;;;;;;;39.95;27.15;;;9.40;99.90;;;;;;2603588;54;20089;31
2022/09/27 04:54:31;;;;;;;34.27;25.53;;;9.40;99.90;;;;;;2603655;46;20748;31
2022/09/27 04:57:16;;;;;;;38.75;27.10;;;9.40;99.90;;;;;;2603315;54;20033;31
2022/09/27 04:59:50;;;;;;;33.08;24.40;;;9.40;99.90;;;;;;2603515;54;20126;31
2022/09/27 05:02:24;;;;;;;39.33;27.23;;;9.40;99.90;;;;;;2603428;54;20953;31
2022/09/27 05:05:27;;;;;;;38.70;25.80;;;9.40;99.90;;;;;;2603500;54;20025;31
2022/09/27 05:08:01;;;;;;;34.45;24.42;;;9.40;99.90;;;;;;2603592;54;20158;31
2022/09/27 05:10:54;;;;;;;38.05;26.50;;;9.40;99.90;;;;;;2603334;54;20023;31
2022/09/27 05:13:29;;;;;;;39.50;28.00;;;9.40;99.90;;;;;;2603149;54;20075;31
2022/09/27 05:16:05;;;;;;;58.67;37.90;;;9.40;99.90;;;;;;2605847;54;20030;31
2022/09/27 05:18:57;;;;;;;55.10;35.15;;;9.40;99.90;;;;;;2603618;54;20045;31
2022/09/27 05:22:06;;;;;;;39.95;26.67;;;9.40;99.90;;;;;;2603217;54;20057;31
2022/09/27 05:24:42;;;;;;;64.25;50.75;;;9.40;99.90;;;;;;2603343;54;20844;31
2022/09/27 05:27:19;;;;;;;45.05;37.60;;;9.40;99.90;;;;;;2603442;54;20101;31
2022/09/27 05:29:54;;;;;;;32.50;26.00;;;9.50;99.90;;;;;;2603298;54;20909;31
2022/09/27 05:32:33;;;;;;;32.03;24.57;;;9.40;99.90;;;;;;2603341;54;20983;31
2022/09/27 05:35:27;;;;;;;31.43;24.67;;;9.40;99.90;;;;;;2603389;54;20034;31
2022/09/27 05:38:06;;;;;;;36.40;24.70;;;9.50;99.90;;;;;;2603514;54;20847;31
2022/09/27 05:40:46;;;;;;;38.75;24.90;;;9.40;99.90;;;;;;2603502;54;20814;31
2022/09/27 05:43:22;;;;;;;27.53;19.77;;;9.40;99.90;;;;;;2603323;54;20089;31
2022/09/27 05:46:01;;;;;;;31.70;23.30;;;9.40;99.90;;;;;;2603336;54;20145;31
2022/09/27 05:48:37;;;;;;;33.00;24.10;;;9.40;99.90;;;;;;2603417;54;20933;31
2022/09/27 05:51:14;;;;;;;31.10;22.65;;;9.40;99.90;;;;;;2603209;54;20925;31
2022/09/27 05:53:52;;;;;;;32.17;23.20;;;9.40;99.90;;;;;;2603333;54;20049;31
2022/09/27 05:56:34;;;;;;;32.30;22.17;;;9.50;99.90;;;;;;2603388;54;20026;31
2022/09/27 05:59:12;;;;;;;31.20;23.70;;;9.50;99.90;;;;;;2603378;54;20018;31
2022/09/27 06:02:07;;;;;;;31.85;22.80;;;9.50;99.90;;;;;;2603395;54;20022;31
2022/09/27 06:05:11;;;;;;;32.08;21.33;;;9.50;99.90;;;;;;2603205;54;20172;31
2022/09/27 06:08:13;;;;;;;30.63;23.05;;;9.50;99.90;;;;;;2603522;54;20097;31
2022/09/27 06:11:02;;;;;;;33.92;24.63;;;9.50;99.90;;;;;;2621039;46;20909;31
2022/09/27 06:13:38;;;;;;;29.70;22.00;;;9.50;99.90;;;;;;2603407;54;20979;31
2022/09/27 06:16:13;;;;;;;35.90;24.07;;;9.50;99.90;;;;;;2603398;54;20057;31
2022/09/27 06:18:51;;;;;;;33.60;22.75;;;9.50;99.90;;;;;;2621915;46;20272;31
2022/09/27 06:21:27;;;;;;;27.77;20.90;;;9.60;99.90;;;;;;2603324;54;20025;31
2022/09/27 06:24:06;;;;;;;32.80;23.02;;;9.60;99.90;;;;;;2603198;54;21195;31
2022/09/27 06:26:45;;;;;;;33.22;21.35;;;9.70;99.90;;;;;;2701807;39;21580;31
2022/09/27 06:29:34;;;;;;;34.92;22.45;;;9.90;99.90;;;;;;2603087;54;20089;31
2022/09/27 06:32:10;;;;;;;26.27;20.38;;;9.90;99.90;;;;;;2701817;39;21057;31
2022/09/27 06:34:54;;;;;;;28.38;22.00;;;9.80;99.90;;;;;;2603060;54;20121;31
2022/09/27 06:37:31;;;;;;;30.52;22.70;;;9.90;99.90;;;;;;2603077;54;20029;31
2022/09/27 06:40:08;;;;;;;30.80;22.40;;;9.90;99.90;;;;;;2603144;54;21096;31
2022/09/27 06:43:07;;;;;;;37.45;24.35;;;10.00;99.90;;;;;;2603010;54;21263;31
2022/09/27 06:46:09;;;;;;;35.60;22.98;;;9.90;99.90;;;;;;2603099;54;20022;31
2022/09/27 06:48:59;;;;;;;39.92;25.10;;;10.00;99.90;;;;;;2602633;54;20941;31
2022/09/27 06:51:33;;;;;;;38.15;25.05;;;10.00;99.90;;;;;;2602881;54;20918;31
2022/09/27 06:54:09;;;;;;;31.57;23.37;;;10.00;99.90;;;;;;2605004;46;20925;31
2022/09/27 06:56:45;;;;;;;36.10;23.63;;;10.10;99.90;;;;;;2603061;54;20119;31
2022/09/27 07:02:28;;;;;;;37.00;25.10;;;10.10;99.90;;;;;;2701618;39;21454;31
2022/09/27 07:05:22;;;;;;;33.78;23.88;;;10.20;99.90;;;;;;2603205;54;20860;31
2022/09/27 07:08:18;;;;;;;34.60;23.55;;;10.00;99.90;;;;;;2603207;54;20104;31
2022/09/27 07:10:54;;;;;;;33.87;24.13;;;10.20;99.90;;;;;;2603102;54;20124;31
2022/09/27 07:13:31;;;;;;;39.15;26.77;;;10.30;99.90;;;;;;2602950;54;20046;31
2022/09/27 07:16:06;;;;;;;38.95;28.80;;;10.30;99.90;;;;;;2602894;54;20093;31
2022/09/27 07:18:44;;;;;;;42.97;30.50;;;10.30;99.90;;;;;;2602969;54;20926;31
2022/09/27 07:21:20;;;;;;;38.05;26.13;;;10.30;99.90;;;;;;2604925;54;20096;31
2022/09/27 07:23:56;;;;;;;43.03;29.55;;;10.40;99.90;;;;;;2602895;54;20034;31
2022/09/27 07:26:34;;;;;;;39.30;28.40;;;10.40;99.90;;;;;;2603165;54;20029;31
2022/09/27 07:29:11;;;;;;;45.75;28.77;;;10.40;99.90;;;;;;2603035;54;20846;31
2022/09/27 07:31:47;;;;;;;;;;;10.40;99.90;;;;;;2603195;54;20026;31
2022/09/27 07:34:26;;;;;;;43.35;26.63;;;10.50;99.90;;;;;;2607651;47;19958;31
2022/09/27 07:37:04;;;;;;;37.45;25.92;;;10.50;99.90;;;;;;2603059;54;20023;31
2022/09/27 07:39:44;;;;;;;39.42;26.83;;;10.50;99.90;;;;;;2621595;47;20928;31
2022/09/27 07:42:20;;;;;;;33.97;25.67;;;10.50;99.90;;;;;;2604660;47;20030;31
2022/09/27 07:44:59;;;;;;;34.15;24.45;;;10.50;99.90;;;;;;2603132;54;20124;31
2022/09/27 07:47:55;;;;;;;33.10;24.87;;;10.50;99.90;;;;;;2603007;54;20065;31
2022/09/27 07:50:50;;;;;;;36.88;25.42;;;10.60;99.90;;;;;;2602856;54;20064;31
2022/09/27 07:53:40;;;;;;;29.40;23.30;;;10.70;99.90;;;;;;2602891;54;20022;31
2022/09/27 07:56:37;;;;;;;32.40;23.83;;;10.60;99.90;;;;;;2604813;54;20084;31
2022/09/27 07:59:11;;;;;;;31.88;23.88;;;10.60;99.90;;;;;;2603383;54;20827;-75
2022/09/27 08:01:46;;;;;;;36.50;24.77;;;10.60;99.90;;;;;;2603182;54;20125;-74
2022/09/27 08:04:20;;;;;;;27.92;22.23;;;10.50;99.90;;;;;;2602804;54;21333;31
2022/09/27 08:06:59;;;;;;;32.10;24.20;;;10.90;99.90;;;;;;2602716;54;20029;31
2022/09/27 08:09:34;;;;;;;29.50;21.30;;;10.40;99.90;;;;;;2604043;54;20049;31
2022/09/27 08:12:09;;;;;;;29.60;22.38;;;10.70;99.90;;;;;;2623640;47;20860;31
2022/09/27 08:14:45;;;;;;;34.85;24.40;;;10.80;99.90;;;;;;2621480;47;20116;31
2022/09/27 08:17:21;;;;;;;31.58;23.45;;;10.80;99.90;;;;;;2605280;54;20027;31
2022/09/27 08:20:22;;;;;;;30.75;21.98;;;11.10;99.90;;;;;;2621451;47;20805;31
2022/09/27 08:23:16;;;;;;;29.95;21.17;;;10.90;99.90;;;;;;2602643;54;20026;31
2022/09/27 08:25:56;;;;;;;27.05;21.55;;;10.90;99.90;;;;;;2608982;39;21014;31
2022/09/27 08:28:39;;;;;;;32.78;23.88;;;11.00;99.90;;;;;;2602976;54;20875;31
2022/09/27 08:31:22;;;;;;;32.15;24.10;;;11.00;99.90;;;;;;2602834;54;20023;31
2022/09/27 08:33:56;;;;;;;33.20;23.80;;;11.10;99.90;;;;;;2603348;54;20057;31
2022/09/27 08:36:31;;;;;;;36.30;23.60;;;11.20;99.90;;;;;;2603965;54;20797;-81
2022/09/27 08:39:09;;;;;;;31.33;23.50;;;11.20;99.90;;;;;;2603524;54;22281;31
2022/09/27 08:41:52;;;;;;;40.38;27.48;;;11.10;99.90;;;;;;2622189;46;21028;31
2022/09/27 08:44:27;;;;;;;35.00;25.70;;;11.10;99.90;;;;;;2605494;54;20022;31
2022/09/27 08:47:07;;;;;;;36.78;27.27;;;11.10;99.90;;;;;;2605453;54;20800;31
2022/09/27 08:49:40;;;;;;;39.03;30.90;;;11.10;99.90;;;;;;2604428;46;20046;-73
2022/09/27 08:52:16;;;;;;;65.65;43.53;;;11.20;99.90;;;;;;2604371;54;20021;-77
2022/09/27 08:54:57;;;;;;;124.18;69.85;;;11.20;99.90;;;;;;2605564;54;20736;31
2022/09/27 08:57:28;;;;;;;90.80;57.75;;;11.20;99.90;;;;;;2605693;54;20022;31
2022/09/27 09:00:06;;;;;;;44.10;31.73;;;11.20;99.90;;;;;;2605585;54;20859;31
2022/09/27 09:02:38;;;;;;;39.27;26.73;;;11.30;99.90;;;;;;2687685;39;20309;31
2022/09/27 09:05:18;;;;;;;36.13;24.02;;;11.30;99.90;;;;;;2605179;54;20025;31
2022/09/27 09:07:58;;;;;;;34.83;23.25;;;11.30;99.90;;;;;;2606005;54;20030;31
2022/09/27 09:13:42;;;;;;;31.65;21.90;;;11.40;99.90;;;;;;2605748;54;20871;31
2022/09/27 09:16:20;;;;;;;25.55;19.15;;;11.50;99.90;;;;;;2603962;54;20101;-78
2022/09/27 09:19:05;;;;;;;27.65;21.45;;;11.50;99.90;;;;;;2621997;46;21630;31
2022/09/27 09:22:03;;;;;;;26.83;20.27;;;11.50;99.90;;;;;;2605038;54;20845;31
2022/09/27 09:24:48;;;;;;;31.27;21.33;;;11.50;99.90;;;;;;2603314;54;20892;31
2022/09/27 09:27:30;;;;;;;25.65;19.17;;;11.60;99.90;;;;;;2605568;54;20022;31
2022/09/27 09:30:21;;;;;;;25.55;19.75;;;11.60;99.90;;;;;;2604192;54;20903;31
2022/09/27 09:32:57;;;;;;;29.98;20.15;;;11.60;99.90;;;;;;2603577;54;20029;31
2022/09/27 09:35:31;;;;;;;25.52;19.98;;;11.70;99.90;;;;;;2622151;46;20900;31
2022/09/27 09:38:07;;;;;;;27.27;20.77;;;11.90;99.90;;;;;;2603462;54;20022;31
2022/09/27 09:40:42;;;;;;;29.80;22.60;;;11.90;99.90;;;;;;2611575;39;21057;31
2022/09/27 09:43:20;;;;;;;25.95;21.02;;;11.80;99.90;;;;;;2605320;54;20977;31
2022/09/27 09:45:57;;;;;;;29.98;20.90;;;11.90;99.90;;;;;;2603484;54;20029;31
2022/09/27 09:48:32;;;;;;;24.50;19.75;;;11.90;99.90;;;;;;2612660;54;20029;31
2022/09/27 09:51:09;;;;;;;29.13;21.85;;;12.00;99.90;;;;;;2611367;54;20077;-81
2022/09/27 09:53:46;;;;;;;24.85;19.17;;;12.10;99.90;;;;;;2610797;54;20038;31
2022/09/27 09:56:30;;;;;;;28.40;22.00;;;12.10;99.90;;;;;;2622430;46;20034;-79
2022/09/27 09:59:03;;;;;;;29.50;21.20;;;12.10;99.90;;;;;;2605220;54;20026;31
2022/09/27 10:01:50;;;;;;;26.05;19.90;;;12.20;99.90;;;;;;2622103;46;20026;31
2022/09/27 10:04:24;;;;;;;25.38;19.25;;;12.20;99.90;;;;;;2611849;54;20026;31
2022/09/27 10:07:00;;;;;;;23.17;17.38;;;12.30;99.90;;;;;;2606222;54;20041;31
2022/09/27 10:09:40;;;;;;;22.02;16.83;;;12.30;99.90;;;;;;2623816;46;20497;31
2022/09/27 10:12:39;;;;;;;19.70;16.48;;;12.40;99.90;;;;;;2605126;54;20140;31
2022/09/27 10:15:19;;;;;;;19.45;15.63;;;12.40;99.90;;;;;;2609503;54;20924;31
2022/09/27 10:17:55;;;;;;;21.35;16.75;;;12.40;99.90;;;;;;2630520;46;20026;31
2022/09/27 10:20:32;;;;;;;18.95;15.65;;;12.50;99.90;;;;;;2603653;54;20037;31
2022/09/27 10:23:11;;;;;;;21.10;14.70;;;12.50;99.90;;;;;;2604952;54;20121;31
2022/09/27 10:26:02;;;;;;;18.70;13.93;;;12.50;99.90;;;;;;2611701;54;20073;31
2022/09/27 10:28:57;;;;;;;23.42;19.15;;;12.60;99.90;;;;;;2611663;54;20953;31
2022/09/27 10:31:46;;;;;;;19.95;17.52;;;12.80;99.90;;;;;;2606480;54;20056;31
2022/09/27 10:34:32;;;;;;;19.08;15.45;;;12.70;99.90;;;;;;2606325;54;20023;31
2022/09/27 10:37:17;;;;;;;17.63;15.38;;;12.80;99.90;;;;;;2611836;54;20026;31
2022/09/27 10:40:26;;;;;;;21.85;16.30;;;12.60;99.90;;;;;;2604820;54;20023;31
2022/09/27 10:42:59;;;;;;;23.27;16.63;;;12.80;99.90;;;;;;2604715;54;20029;31
2022/09/27 10:45:52;;;;;;;17.27;14.38;;;12.80;99.90;;;;;;2605072;54;20022;31
2022/09/27 10:48:26;;;;;;;19.85;15.48;;;12.90;99.90;;;;;;2604619;54;20909;31
2022/09/27 10:51:02;;;;;;;18.77;16.38;;;13.00;99.90;;;;;;2605072;54;20022;31
2022/09/27 10:53:51;;;;;;;19.30;15.55;;;12.90;99.90;;;;;;2605683;54;20912;31
2022/09/27 10:56:33;;;;;;;21.30;14.52;;;12.90;99.90;;;;;;2603959;39;22269;31
2022/09/27 10:59:07;;;;;;;20.98;15.65;;;12.90;99.90;;;;;;2603322;54;20030;31
2022/09/27 11:01:44;;;;;;;21.83;16.58;;;13.00;99.90;;;;;;2603265;54;20852;31
2022/09/27 11:04:33;;;;;;;17.05;14.77;;;13.10;99.90;;;;;;2604468;54;20034;31
2022/09/27 11:07:17;;;;;;;18.08;14.10;;;13.00;99.90;;;;;;2604747;54;20048;31
2022/09/27 11:10:01;;;;;;;19.15;14.52;;;12.90;99.90;;;;;;2605817;54;20558;31
2022/09/27 11:12:40;;;;;;;17.15;14.35;;;13.00;99.90;;;;;;2623103;46;20027;31
2022/09/27 11:15:19;;;;;;;18.00;16.10;;;12.90;99.90;;;;;;2605278;54;20033;31
2022/09/27 11:17:57;;;;;;;23.00;15.75;;;12.90;99.90;;;;;;2624222;39;22069;-76
2022/09/27 11:20:30;;;;;;;23.27;16.48;;;12.90;99.90;;;;;;2604836;54;20862;31
2022/09/27 11:23:36;;;;;;;20.45;15.48;;;12.90;99.90;;;;;;2604330;54;20049;-79
2022/09/27 11:26:19;;;;;;;20.57;15.60;;;12.90;99.90;;;;;;2608684;54;20033;31
2022/09/27 11:28:57;;;;;;;20.15;15.93;;;12.80;99.90;;;;;;2612604;54;20073;31
2022/09/27 11:32:01;;;;;;;21.08;16.45;;;12.90;99.90;;;;;;2603003;54;20928;31
2022/09/27 11:34:45;;;;;;;23.35;16.83;;;12.80;99.90;;;;;;2608133;54;21014;31
2022/09/27 11:37:24;;;;;;;23.50;17.75;;;13.10;99.90;;;;;;2608370;39;20403;31
2022/09/27 11:40:06;;;;;;;26.48;18.30;;;12.80;99.90;;;;;;2608027;54;20917;31
2022/09/27 11:43:11;;;;;;;24.02;17.95;;;12.80;99.90;;;;;;2645738;39;20529;31
2022/09/27 11:45:49;;;;;;;26.05;19.35;;;12.90;99.90;;;;;;2603299;54;20030;-78
2022/09/27 11:49:00;;;;;;;26.75;20.50;;;13.10;99.90;;;;;;2605904;54;20030;-81
2022/09/27 11:51:41;;;;;;;28.70;20.98;;;13.00;99.90;;;;;;2604893;54;20023;31
2022/09/27 11:54:25;;;;;;;31.33;21.43;;;13.00;99.90;;;;;;2603057;54;20936;31
2022/09/27 11:57:06;;;;;;;23.30;19.60;;;13.00;99.90;;;;;;2603144;54;20410;31
2022/09/27 11:59:53;;;;;;;25.15;18.70;;;13.20;99.90;;;;;;2605028;54;20185;31
2022/09/27 12:02:50;;;;;;;28.13;20.73;;;13.00;99.90;;;;;;2602825;54;20050;31
2022/09/27 12:05:27;;;;;;;21.73;17.60;;;13.30;99.90;;;;;;2603112;54;20053;31
2022/09/27 12:08:21;;;;;;;21.60;16.87;;;13.30;99.90;;;;;;2603214;54;20085;31
2022/09/27 12:13:34;;;;;;;24.42;18.38;;;13.40;99.90;;;;;;2605464;54;20845;31
2022/09/27 12:16:07;;;;;;;17.60;13.93;;;13.50;99.90;;;;;;2605438;54;20919;31
2022/09/27 12:18:41;;;;;;;17.90;12.95;;;13.50;99.90;;;;;;2603755;54;20369;31
2022/09/27 12:21:35;;;;;;;16.48;13.13;;;13.80;99.90;;;;;;2603703;54;20053;31
2022/09/27 12:24:08;;;;;;;11.90;10.45;;;13.60;99.90;;;;;;2603600;54;20022;31
2022/09/27 12:26:46;;;;;;;16.73;11.13;;;13.60;99.90;;;;;;2606378;54;20072;-80
2022/09/27 12:29:30;;;;;;;14.75;10.90;;;13.80;99.90;;;;;;2605793;54;20973;31
2022/09/27 12:32:06;;;;;;;14.95;11.93;;;13.60;99.90;;;;;;2606577;54;20077;31
2022/09/27 12:34:42;;;;;;;15.35;11.95;;;13.60;99.90;;;;;;2612623;46;20031;31
2022/09/27 12:37:16;;;;;;;13.93;11.20;;;13.60;99.90;;;;;;2603762;54;20023;31
2022/09/27 12:39:53;;;;;;;14.13;11.80;;;13.60;99.90;;;;;;2607867;54;20022;31
2022/09/27 12:42:33;;;;;;;14.38;11.18;;;13.80;99.90;;;;;;2606253;54;20094;-81
2022/09/27 12:45:19;;;;;;;13.55;11.13;;;13.60;99.90;;;;;;2605123;54;20022;-79
2022/09/27 12:48:02;;;;;;;13.90;11.60;;;13.60;99.90;;;;;;2607251;54;20050;31
2022/09/27 12:50:38;;;;;;;14.02;11.02;;;13.50;99.90;;;;;;2611532;54;20019;31
2022/09/27 12:53:21;;;;;;;14.80;11.63;;;13.60;99.90;;;;;;2606093;54;20956;31
2022/09/27 12:56:09;;;;;;;13.25;11.05;;;13.60;99.90;;;;;;2702192;39;20430;31
2022/09/27 12:59:18;;;;;;;13.57;10.35;;;13.60;99.90;;;;;;2603669;54;20787;31
2022/09/27 13:02:26;;;;;;;14.90;10.70;;;13.60;99.90;;;;;;2603479;54;20988;31
2022/09/27 13:05:27;;;;;;;14.93;11.25;;;13.60;99.90;;;;;;2605714;54;20033;31
2022/09/27 13:08:19;;;;;;;13.45;10.77;;;13.60;99.90;;;;;;2603660;54;20053;31
2022/09/27 13:10:59;;;;;;;12.50;10.80;;;13.70;99.90;;;;;;2604804;54;20953;31
2022/09/27 13:13:38;;;;;;;16.00;12.00;;;13.70;99.90;;;;;;2603758;54;20022;31
2022/09/27 13:16:19;;;;;;;19.35;13.60;;;13.70;99.90;;;;;;2622157;46;20941;31
2022/09/27 13:19:01;;;;;;;13.53;10.97;;;13.80;99.90;;;;;;2603341;54;20034;31
2022/09/27 13:21:56;;;;;;;13.20;11.10;;;13.80;99.90;;;;;;2603326;54;20038;31
2022/09/27 13:24:55;;;;;;;16.58;10.20;;;13.80;99.90;;;;;;2603381;54;21545;31
2022/09/27 13:28:03;;;;;;;17.77;11.32;;;13.80;99.90;;;;;;2603447;54;20085;31
2022/09/27 13:30:49;;;;;;;13.30;10.68;;;13.80;99.90;;;;;;2603479;54;20030;31
2022/09/27 13:33:44;;;;;;;16.35;11.60;;;13.70;99.90;;;;;;2603632;54;20958;31
2022/09/27 13:36:32;;;;;;;10.93;9.02;;;13.80;99.90;;;;;;2603438;54;20065;31
2022/09/27 13:39:23;;;;;;;12.40;9.35;;;13.70;99.90;;;;;;2603418;54;20882;31
2022/09/27 13:42:34;;;;;;;10.88;9.15;;;13.80;99.90;;;;;;2603483;54;20047;31
2022/09/27 13:45:20;;;;;;;12.80;9.65;;;13.80;99.90;;;;;;2603237;54;20943;-80
2022/09/27 13:47:55;;;;;;;30.30;22.90;;;13.80;99.90;;;;;;2603301;54;20774;31
2022/09/27 13:50:42;;;;;;;19.23;17.00;;;13.80;99.90;;;;;;2603206;54;20026;31
2022/09/27 13:53:26;;;;;;;14.50;13.00;;;13.80;99.90;;;;;;2603656;54;20051;31
2022/09/27 13:55:59;;;;;;;17.00;13.85;;;13.80;99.90;;;;;;2622048;46;20486;31
2022/09/27 13:58:54;;;;;;;19.50;14.90;;;13.90;99.90;;;;;;2603360;54;20060;31
2022/09/27 14:01:48;;;;;;;12.70;9.00;;;13.90;99.90;;;;;;2603311;54;20263;31
2022/09/27 14:04:26;;;;;;;14.85;10.57;;;13.90;99.90;;;;;;2603418;54;20052;31
2022/09/27 14:07:02;;;;;;;13.48;10.48;;;13.90;99.90;;;;;;2603199;54;20033;31
2022/09/27 14:09:39;;;;;;;12.98;9.55;;;14.00;99.90;;;;;;2606628;54;20093;31
2022/09/27 14:12:23;;;;;;;23.48;15.40;;;14.00;99.90;;;;;;2616554;46;20855;31